createdAt,value
2023-04-25T00:02:23.787Z,6.50
2023-04-25T00:04:53.409Z,6.50
2023-04-25T00:07:21.875Z,6.60
2023-04-25T00:09:50.166Z,6.60
2023-04-25T00:12:18.379Z,6.50
2023-04-25T00:14:46.608Z,6.60
2023-04-25T00:17:14.809Z,6.60
2023-04-25T00:19:45.641Z,6.70
2023-04-25T00:22:14.223Z,6.70
2023-04-25T00:24:42.408Z,6.70
2023-04-25T00:27:10.606Z,6.70
2023-04-25T00:29:38.784Z,6.80
2023-04-25T00:32:07.173Z,6.80
2023-04-25T00:34:35.406Z,6.80
2023-04-25T00:37:05.017Z,6.90
2023-04-25T00:39:33.314Z,6.90
2023-04-25T00:42:02.984Z,6.90
2023-04-25T00:44:33.207Z,6.90
2023-04-25T00:47:02.650Z,6.90
2023-04-25T00:49:30.910Z,6.90
2023-04-25T00:51:59.269Z,6.90
2023-04-25T00:54:28.946Z,6.90
2023-04-25T00:56:57.148Z,6.90
2023-04-25T00:59:26.002Z,6.90
2023-04-25T01:01:54.366Z,6.90
2023-04-25T01:04:23.183Z,6.90
2023-04-25T01:06:51.961Z,6.90
2023-04-25T01:09:21.695Z,6.90
2023-04-25T01:11:51.681Z,6.80
2023-04-25T01:14:20.001Z,6.80
2023-04-25T01:16:49.217Z,6.80
2023-04-25T01:19:20.189Z,6.80
2023-04-25T01:21:50.124Z,6.80
2023-04-25T01:24:18.358Z,6.80
2023-04-25T01:26:50.976Z,6.90
2023-04-25T01:29:20.124Z,6.80
2023-04-25T01:31:48.967Z,6.80
2023-04-25T01:34:17.305Z,6.80
2023-04-25T01:36:45.565Z,6.90
2023-04-25T01:39:15.382Z,6.90
2023-04-25T01:41:43.777Z,6.90
2023-04-25T01:44:12.182Z,6.90
2023-04-25T01:46:40.605Z,6.90
2023-04-25T01:49:09.123Z,6.90
2023-04-25T01:51:37.482Z,6.90
2023-04-25T01:54:06.118Z,6.90
2023-04-25T01:56:39.249Z,6.80
2023-04-25T01:59:07.926Z,6.90
2023-04-25T02:01:36.191Z,6.80
2023-04-25T02:04:04.515Z,6.90
2023-04-25T02:06:33.241Z,6.80
2023-04-25T02:09:01.421Z,6.80
2023-04-25T02:11:29.717Z,6.80
2023-04-25T02:13:59.273Z,6.70
2023-04-25T02:16:27.548Z,6.70
2023-04-25T02:18:56.858Z,6.70
2023-04-25T02:21:25.100Z,6.60
2023-04-25T02:23:53.692Z,6.60
2023-04-25T02:26:22.013Z,6.60
2023-04-25T02:28:50.722Z,6.50
2023-04-25T02:31:20.421Z,6.50
2023-04-25T02:33:49.738Z,6.50
2023-04-25T02:36:18.089Z,6.40
2023-04-25T02:38:46.300Z,6.40
2023-04-25T02:41:14.645Z,6.30
2023-04-25T02:43:42.790Z,6.30
2023-04-25T02:46:11.056Z,6.30
2023-04-25T02:48:40.605Z,6.20
2023-04-25T02:51:08.830Z,6.20
2023-04-25T02:53:37.125Z,6.20
2023-04-25T02:56:05.905Z,6.20
2023-04-25T02:58:34.101Z,6.10
2023-04-25T03:01:02.363Z,6.10
2023-04-25T03:03:30.614Z,6.00
2023-04-25T03:06:00.213Z,6.10
2023-04-25T03:08:33.290Z,6.00
2023-04-25T03:11:01.684Z,6.00
2023-04-25T03:13:30.904Z,6.00
2023-04-25T03:15:59.180Z,6.00
2023-04-25T03:18:27.321Z,6.00
2023-04-25T03:20:55.585Z,6.00
2023-04-25T03:23:25.088Z,6.00
2023-04-25T03:25:53.271Z,6.00
2023-04-25T03:28:21.548Z,6.00
2023-04-25T03:30:49.809Z,6.00
2023-04-25T03:33:17.960Z,5.90
2023-04-25T03:35:46.584Z,5.90
2023-04-25T03:38:14.802Z,5.90
2023-04-25T03:40:44.349Z,5.90
2023-04-25T03:43:12.594Z,5.90
2023-04-25T03:45:41.015Z,5.90
2023-04-25T03:48:09.326Z,5.90
2023-04-25T03:50:37.801Z,5.90
2023-04-25T03:53:06.227Z,5.80
2023-04-25T03:55:34.501Z,5.80
2023-04-25T03:58:04.044Z,5.80
2023-04-25T04:00:32.260Z,5.70
2023-04-25T04:03:00.542Z,5.70
2023-04-25T04:05:29.474Z,5.60
2023-04-25T04:07:57.753Z,5.70
2023-04-25T04:10:27.101Z,5.60
2023-04-25T04:12:55.341Z,5.60
2023-04-25T04:15:24.926Z,5.70
2023-04-25T04:17:53.179Z,5.70
2023-04-25T04:20:21.416Z,5.60
2023-04-25T04:22:49.578Z,5.60
2023-04-25T04:25:17.986Z,5.60
2023-04-25T04:27:47.081Z,5.70
2023-04-25T04:30:16.821Z,5.70
2023-04-25T04:32:47.414Z,5.60
2023-04-25T04:35:16.855Z,5.70
2023-04-25T04:37:46.786Z,5.70
2023-04-25T04:40:16.577Z,5.70
2023-04-25T04:42:46.264Z,5.60
2023-04-25T04:45:14.483Z,5.70
2023-04-25T04:47:42.851Z,5.70
2023-04-25T04:50:13.343Z,5.80
2023-04-25T04:52:41.536Z,5.80
2023-04-25T04:55:11.184Z,5.90
2023-04-25T04:57:39.709Z,5.90
2023-04-25T05:00:12.016Z,5.90
2023-04-25T05:02:41.333Z,5.90
2023-04-25T05:05:10.916Z,6.00
2023-04-25T05:07:40.517Z,6.00
2023-04-25T05:10:10.516Z,5.90
2023-04-25T05:12:38.719Z,6.00
2023-04-25T05:15:08.474Z,6.10
2023-04-25T05:17:36.714Z,6.10
2023-04-25T05:20:06.846Z,6.10
2023-04-25T05:22:35.040Z,6.20
2023-04-25T05:25:05.170Z,6.20
2023-04-25T05:27:33.314Z,6.30
2023-04-25T05:30:01.596Z,6.30
2023-04-25T05:32:29.942Z,6.40
2023-04-25T05:34:58.230Z,6.40
2023-04-25T05:37:26.514Z,6.30
2023-04-25T05:39:54.685Z,6.40
2023-04-25T05:42:24.240Z,6.40
2023-04-25T05:44:52.740Z,6.40
2023-04-25T05:47:21.353Z,6.40
2023-04-25T05:49:49.569Z,6.40
2023-04-25T05:52:17.848Z,6.40
2023-04-25T05:54:46.239Z,6.30
2023-04-25T05:57:24.855Z,6.40
2023-04-25T05:59:53.978Z,6.30
2023-04-25T06:02:23.106Z,6.40
2023-04-25T06:04:52.414Z,6.40
2023-04-25T06:07:21.277Z,6.30
2023-04-25T06:09:49.513Z,6.40
2023-04-25T06:12:17.770Z,6.50
2023-04-25T06:14:47.537Z,6.50
2023-04-25T06:17:15.832Z,6.60
2023-04-25T06:19:44.074Z,6.80
2023-04-25T06:22:12.955Z,7.20
2023-04-25T06:24:41.122Z,7.30
2023-04-25T06:27:09.351Z,7.40
2023-04-25T06:29:37.517Z,7.70
2023-04-25T06:32:07.559Z,7.80
2023-04-25T06:34:35.771Z,8.10
2023-04-25T06:37:04.012Z,8.30
2023-04-25T06:39:32.582Z,8.70
2023-04-25T06:42:00.798Z,8.80
2023-04-25T06:44:30.471Z,8.70
2023-04-25T06:46:58.796Z,8.60
2023-04-25T06:49:28.642Z,8.50
2023-04-25T06:51:56.852Z,8.40
2023-04-25T06:54:25.881Z,8.40
2023-04-25T06:56:54.072Z,8.40
2023-04-25T06:59:22.375Z,8.60
2023-04-25T07:01:50.970Z,8.60
2023-04-25T07:04:19.427Z,8.70
2023-04-25T07:06:50.264Z,8.80
2023-04-25T07:09:18.571Z,8.90
2023-04-25T07:11:46.763Z,9.00
2023-04-25T07:14:14.998Z,9.30
2023-04-25T07:16:43.333Z,9.40
2023-04-25T07:19:11.626Z,9.50
2023-04-25T07:21:39.852Z,9.50
2023-04-25T07:24:09.784Z,9.50
2023-04-25T07:26:38.412Z,9.70
2023-04-25T07:29:06.692Z,9.80
2023-04-25T07:31:34.926Z,9.90
2023-04-25T07:34:03.608Z,10.10
2023-04-25T07:36:31.950Z,10.00
2023-04-25T07:39:00.208Z,9.80
2023-04-25T07:41:29.757Z,9.70
2023-04-25T07:43:58.000Z,9.50
2023-04-25T07:46:26.402Z,9.50
2023-04-25T07:48:54.717Z,9.60
2023-04-25T07:51:23.263Z,9.60
2023-04-25T07:53:51.703Z,9.70
2023-04-25T07:56:19.909Z,9.90
2023-04-25T07:58:49.723Z,10.10
2023-04-25T08:01:18.217Z,10.30
2023-04-25T08:03:46.685Z,10.00
2023-04-25T08:06:15.227Z,9.70
2023-04-25T08:08:43.715Z,9.50
2023-04-25T08:11:12.610Z,9.50
2023-04-25T08:13:40.838Z,10.00
2023-04-25T08:16:10.558Z,10.10
2023-04-25T08:18:39.020Z,10.20
2023-04-25T08:21:07.850Z,10.20
2023-04-25T08:23:36.019Z,10.10
2023-04-25T08:26:05.766Z,10.20
2023-04-25T08:28:34.064Z,10.40
2023-04-25T08:31:02.282Z,10.70
2023-04-25T08:33:32.287Z,10.60
2023-04-25T08:36:00.485Z,10.30
2023-04-25T08:38:28.696Z,10.40
2023-04-25T08:40:59.052Z,10.50
2023-04-25T08:43:27.715Z,10.60
2023-04-25T08:45:57.033Z,10.80
2023-04-25T08:48:29.703Z,11.20
2023-04-25T08:50:59.676Z,11.60
2023-04-25T08:53:30.801Z,11.50
2023-04-25T08:56:02.481Z,11.20
2023-04-25T08:58:31.076Z,11.00
2023-04-25T09:00:59.336Z,11.30
2023-04-25T09:03:28.138Z,11.70
2023-04-25T09:05:58.064Z,11.60
2023-04-25T09:08:26.457Z,11.40
2023-04-25T09:10:54.714Z,11.20
2023-04-25T09:13:29.092Z,11.00
2023-04-25T09:15:59.700Z,10.80
2023-04-25T09:18:31.031Z,10.80
2023-04-25T09:21:13.672Z,11.10
2023-04-25T09:23:45.670Z,11.20
2023-04-25T09:26:18.077Z,11.00
2023-04-25T09:28:46.936Z,10.80
2023-04-25T09:31:24.255Z,10.70
2023-04-25T09:33:54.642Z,10.60
2023-04-25T09:36:29.497Z,10.50
2023-04-25T09:38:58.095Z,10.40
2023-04-25T09:41:27.206Z,10.30
2023-04-25T09:43:59.399Z,10.30
2023-04-25T09:46:34.538Z,10.20
2023-04-25T09:49:10.426Z,10.20
2023-04-25T09:51:40.210Z,10.20
2023-04-25T09:54:08.508Z,10.20
2023-04-25T09:56:39.453Z,10.30
2023-04-25T09:59:09.262Z,10.50
2023-04-25T10:01:38.555Z,10.70
2023-04-25T10:04:11.105Z,10.80
2023-04-25T10:06:44.018Z,11.10
2023-04-25T10:09:13.825Z,11.20
2023-04-25T10:11:45.416Z,11.30
2023-04-25T10:14:15.078Z,11.20
2023-04-25T10:16:44.664Z,11.30
2023-04-25T10:19:13.517Z,11.50
2023-04-25T10:21:55.245Z,11.70
2023-04-25T10:24:23.777Z,11.90
2023-04-25T10:26:52.892Z,11.80
2023-04-25T10:29:25.965Z,11.70
2023-04-25T10:31:54.760Z,11.60
2023-04-25T10:34:28.055Z,11.50
2023-04-25T10:36:58.253Z,11.30
2023-04-25T10:39:29.337Z,11.10
2023-04-25T10:41:58.912Z,11.00
2023-04-25T10:44:30.420Z,10.90
2023-04-25T10:47:00.059Z,10.70
2023-04-25T10:49:36.447Z,10.40
2023-04-25T10:52:20.946Z,10.20
2023-04-25T10:54:49.910Z,10.20
2023-04-25T10:57:39.081Z,10.20
2023-04-25T11:00:34.202Z,9.90
2023-04-25T11:03:19.200Z,9.70
2023-04-25T11:05:57.729Z,9.50
2023-04-25T11:08:40.128Z,9.40
2023-04-25T11:11:08.371Z,9.20
2023-04-25T11:13:36.917Z,9.30
2023-04-25T11:16:12.386Z,9.30
2023-04-25T11:18:43.688Z,9.40
2023-04-25T11:21:12.314Z,9.30
2023-04-25T11:23:41.986Z,9.20
2023-04-25T11:26:10.332Z,9.50
2023-04-25T11:28:38.541Z,9.70
2023-04-25T11:31:07.719Z,9.90
2023-04-25T11:33:35.965Z,10.20
2023-04-25T11:36:04.359Z,10.70
2023-04-25T11:38:32.666Z,11.20
2023-04-25T11:41:02.709Z,11.70
2023-04-25T11:43:31.228Z,11.90
2023-04-25T11:45:59.511Z,12.10
2023-04-25T11:48:27.694Z,12.40
2023-04-25T11:50:56.474Z,12.40
2023-04-25T11:53:25.857Z,12.40
2023-04-25T11:55:54.242Z,12.50
2023-04-25T11:58:24.184Z,12.80
2023-04-25T12:00:52.521Z,13.20
2023-04-25T12:03:22.287Z,13.40
2023-04-25T12:05:50.893Z,13.40
2023-04-25T12:08:19.291Z,13.50
2023-04-25T12:10:49.082Z,13.60
2023-04-25T12:13:24.055Z,13.80
2023-04-25T12:15:52.449Z,13.70
2023-04-25T12:18:23.213Z,13.10
2023-04-25T12:20:51.565Z,12.80
2023-04-25T12:23:20.008Z,12.40
2023-04-25T12:25:48.272Z,12.10
2023-04-25T12:28:20.535Z,11.70
2023-04-25T12:30:58.840Z,11.30
2023-04-25T12:33:28.919Z,11.00
2023-04-25T12:35:58.515Z,10.70
2023-04-25T12:38:29.954Z,10.70
2023-04-25T12:40:58.941Z,10.60
2023-04-25T12:43:27.518Z,10.50
2023-04-25T12:45:58.510Z,10.60
2023-04-25T12:48:26.842Z,10.50
2023-04-25T12:50:55.193Z,10.40
2023-04-25T12:53:25.225Z,10.30
2023-04-25T12:58:22.051Z,10.20
2023-04-25T13:00:50.353Z,10.30
2023-04-25T13:03:20.258Z,10.30
2023-04-25T13:05:48.717Z,10.30
2023-04-25T13:08:16.906Z,10.40
2023-04-25T13:10:45.131Z,10.50
2023-04-25T13:13:13.353Z,10.70
2023-04-25T13:15:41.699Z,10.80
2023-04-25T13:18:10.067Z,10.90
2023-04-25T13:20:39.734Z,10.90
2023-04-25T13:23:07.939Z,11.00
2023-04-25T13:25:36.288Z,11.10
2023-04-25T13:28:04.860Z,11.30
2023-04-25T13:30:33.143Z,11.50
2023-04-25T13:33:04.199Z,11.70
2023-04-25T13:35:37.431Z,11.90
2023-04-25T13:38:07.146Z,12.00
2023-04-25T13:40:35.831Z,11.90
2023-04-25T13:43:04.214Z,11.80
2023-04-25T13:45:33.713Z,11.80
2023-04-25T13:48:02.679Z,11.80
2023-04-25T13:50:31.300Z,11.70
2023-04-25T13:52:59.504Z,11.80
2023-04-25T13:55:29.205Z,11.90
2023-04-25T13:57:57.448Z,11.90
2023-04-25T14:00:25.835Z,11.90
2023-04-25T14:02:54.544Z,12.10
2023-04-25T14:05:22.828Z,12.20
2023-04-25T14:07:51.444Z,12.40
2023-04-25T14:10:19.814Z,12.50
2023-04-25T14:12:49.367Z,12.30
2023-04-25T14:15:17.694Z,12.20
2023-04-25T14:17:46.845Z,12.30
2023-04-25T14:20:15.068Z,12.50
2023-04-25T14:22:44.758Z,12.60
2023-04-25T14:25:12.950Z,12.50
2023-04-25T14:27:41.353Z,12.40
2023-04-25T14:30:12.868Z,12.60
2023-04-25T14:32:41.318Z,12.80
2023-04-25T14:35:11.089Z,12.80
2023-04-25T14:37:39.304Z,12.80
2023-04-25T14:40:11.418Z,12.80
2023-04-25T14:42:39.786Z,12.70
2023-04-25T14:45:11.193Z,12.40
2023-04-25T14:47:40.114Z,12.30
2023-04-25T14:50:10.272Z,12.30
2023-04-25T14:52:38.675Z,12.20
2023-04-25T14:55:08.416Z,12.10
2023-04-25T14:57:37.210Z,12.10
2023-04-25T15:00:09.799Z,12.10
2023-04-25T15:02:39.732Z,12.20
2023-04-25T15:05:09.568Z,12.20
2023-04-25T15:07:37.811Z,12.20
2023-04-25T15:10:12.013Z,12.20
2023-04-25T15:12:40.326Z,12.20
2023-04-25T15:15:14.212Z,12.00
2023-04-25T15:17:47.507Z,11.80
2023-04-25T15:20:16.136Z,11.90
2023-04-25T15:22:45.890Z,11.80
2023-04-25T15:25:14.357Z,11.80
2023-04-25T15:27:44.649Z,11.90
2023-04-25T15:30:16.273Z,12.00
2023-04-25T15:32:46.912Z,12.10
2023-04-25T15:35:16.708Z,12.20
2023-04-25T15:37:45.386Z,12.20
2023-04-25T15:40:16.642Z,12.10
2023-04-25T15:42:48.039Z,12.00
2023-04-25T15:45:17.943Z,12.00
2023-04-25T15:47:47.828Z,12.00
2023-04-25T15:50:16.310Z,11.90
2023-04-25T15:52:44.972Z,11.90
2023-04-25T15:55:14.168Z,11.90
2023-04-25T15:57:42.711Z,11.80
2023-04-25T16:00:13.350Z,11.80
2023-04-25T16:02:43.923Z,11.80
2023-04-25T16:05:14.654Z,11.80
2023-04-25T16:07:44.738Z,11.80
2023-04-25T16:10:14.699Z,11.70
2023-04-25T16:12:43.026Z,11.50
2023-04-25T16:15:11.528Z,11.50
2023-04-25T16:17:40.202Z,11.60
2023-04-25T16:20:12.473Z,11.50
2023-04-25T16:22:43.529Z,11.30
2023-04-25T16:25:12.987Z,11.40
2023-04-25T16:27:41.544Z,11.30
2023-04-25T16:30:12.147Z,11.20
2023-04-25T16:32:42.702Z,11.00
2023-04-25T16:35:13.339Z,10.70
2023-04-25T16:37:42.949Z,10.70
2023-04-25T16:40:12.750Z,10.60
2023-04-25T16:42:41.079Z,10.60
2023-04-25T16:45:11.048Z,10.60
2023-04-25T16:47:39.270Z,10.50
2023-04-25T16:50:09.254Z,10.50
2023-04-25T16:52:37.465Z,10.40
2023-04-25T16:55:11.464Z,10.40
2023-04-25T16:57:39.855Z,10.30
2023-04-25T17:00:10.602Z,10.30
2023-04-25T17:02:38.947Z,10.40
2023-04-25T17:05:08.320Z,10.40
2023-04-25T17:07:36.776Z,10.50
2023-04-25T17:10:07.298Z,10.50
2023-04-25T17:12:35.797Z,10.50
2023-04-25T17:15:04.351Z,10.50
2023-04-25T17:17:32.696Z,10.50
2023-04-25T17:20:01.090Z,10.50
2023-04-25T17:22:29.428Z,10.50
2023-04-25T17:24:57.672Z,10.40
2023-04-25T17:27:27.435Z,10.40
2023-04-25T17:29:55.708Z,10.40
2023-04-25T17:32:24.353Z,10.40
2023-04-25T17:34:55.700Z,10.40
2023-04-25T17:37:26.778Z,10.40
2023-04-25T17:39:55.352Z,10.40
2023-04-25T17:42:23.843Z,10.30
2023-04-25T17:44:55.441Z,10.20
2023-04-25T17:47:24.753Z,10.10
2023-04-25T17:49:54.650Z,10.10
2023-04-25T17:52:22.913Z,10.00
2023-04-25T17:54:51.537Z,10.00
2023-04-25T17:57:22.724Z,9.90
2023-04-25T17:59:50.743Z,9.90
2023-04-25T18:02:20.396Z,9.80
2023-04-25T18:04:49.166Z,9.80
2023-04-25T18:07:17.462Z,9.70
2023-04-25T18:09:45.990Z,9.60
2023-04-25T18:12:15.252Z,9.50
2023-04-25T18:14:43.484Z,9.50
2023-04-25T18:17:12.504Z,9.50
2023-04-25T18:19:42.410Z,9.40
2023-04-25T18:22:12.312Z,9.40
2023-04-25T18:24:40.512Z,9.30
2023-04-25T18:27:08.712Z,9.20
2023-04-25T18:29:37.456Z,9.10
2023-04-25T18:32:06.638Z,9.00
2023-04-25T18:34:35.653Z,8.90
2023-04-25T18:37:05.395Z,8.90
2023-04-25T18:39:33.610Z,8.90
2023-04-25T18:42:05.881Z,8.80
2023-04-25T18:44:39.521Z,8.80
2023-04-25T18:47:07.946Z,8.80
2023-04-25T18:49:37.434Z,8.70
2023-04-25T18:52:10.306Z,8.70
2023-04-25T18:54:38.676Z,8.60
2023-04-25T18:57:07.304Z,8.60
2023-04-25T18:59:35.565Z,8.60
2023-04-25T19:02:05.348Z,8.50
2023-04-25T19:04:34.076Z,8.50
2023-04-25T19:07:02.705Z,8.50
2023-04-25T19:09:32.513Z,8.40
2023-04-25T19:12:01.850Z,8.40
2023-04-25T19:14:32.266Z,8.30
2023-04-25T19:17:01.147Z,8.30
2023-04-25T19:19:29.387Z,8.20
2023-04-25T19:21:58.924Z,8.20
2023-04-25T19:24:27.310Z,8.20
2023-04-25T19:26:57.088Z,8.10
2023-04-25T19:29:25.270Z,8.10
2023-04-25T19:31:54.610Z,8.00
2023-04-25T19:34:23.414Z,8.00
2023-04-25T19:36:54.141Z,8.00
2023-04-25T19:39:23.360Z,7.90
2023-04-25T19:41:51.783Z,7.90
2023-04-25T19:44:21.446Z,7.80
2023-04-25T19:46:50.070Z,7.80
2023-04-25T19:49:18.357Z,7.60
2023-04-25T19:51:46.699Z,7.60
2023-04-25T19:54:14.995Z,7.50
2023-04-25T19:56:43.446Z,7.50
2023-04-25T19:59:11.795Z,7.40
2023-04-25T20:01:43.329Z,7.40
2023-04-25T20:04:12.558Z,7.30
2023-04-25T20:06:40.865Z,7.20
2023-04-25T20:09:10.008Z,7.20
2023-04-25T20:11:38.342Z,7.20
2023-04-25T20:14:06.883Z,7.10
2023-04-25T20:16:35.284Z,7.10
2023-04-25T20:19:05.530Z,7.00
2023-04-25T20:21:34.353Z,6.90
2023-04-25T20:24:02.988Z,6.80
2023-04-25T20:26:33.863Z,6.70
2023-04-25T20:29:02.283Z,6.60
2023-04-25T20:31:31.882Z,6.60
2023-04-25T20:34:00.856Z,6.50
2023-04-25T20:36:34.082Z,6.50
2023-04-25T20:39:02.568Z,6.30
2023-04-25T20:41:31.498Z,6.20
2023-04-25T20:44:01.072Z,6.10
2023-04-25T20:46:30.114Z,6.10
2023-04-25T20:48:58.513Z,6.10
2023-04-25T20:51:27.578Z,6.00
2023-04-25T20:53:57.217Z,5.90
2023-04-25T20:56:26.540Z,5.90
2023-04-25T20:58:55.698Z,5.80
2023-04-25T21:01:24.172Z,5.70
2023-04-25T21:03:52.945Z,5.60
2023-04-25T21:06:21.560Z,5.50
2023-04-25T21:08:50.404Z,5.50
2023-04-25T21:11:20.540Z,5.40
2023-04-25T21:13:48.923Z,5.40
2023-04-25T21:16:17.280Z,5.40
2023-04-25T21:18:45.632Z,5.30
2023-04-25T21:21:14.026Z,5.20
2023-04-25T21:23:43.681Z,5.20
2023-04-25T21:26:11.958Z,5.10
2023-04-25T21:28:41.507Z,5.10
2023-04-25T21:31:09.828Z,5.00
2023-04-25T21:33:38.134Z,5.00
2023-04-25T21:36:07.033Z,5.00
2023-04-25T21:38:35.480Z,4.90
2023-04-25T21:41:03.771Z,4.90
2023-04-25T21:43:32.207Z,4.90
2023-04-25T21:48:32.964Z,4.80
2023-04-25T21:51:01.351Z,4.80
2023-04-25T21:53:29.548Z,4.80
2023-04-25T21:55:57.753Z,4.80
2023-04-25T21:58:26.074Z,4.70
2023-04-25T22:00:55.602Z,4.70
2023-04-25T22:03:25.311Z,4.70
2023-04-25T22:05:53.604Z,4.60
2023-04-25T22:08:21.902Z,4.60
2023-04-25T22:10:50.441Z,4.50
2023-04-25T22:13:18.603Z,4.50
2023-04-25T22:15:48.616Z,4.50
2023-04-25T22:18:17.214Z,4.50
2023-04-25T22:20:46.762Z,4.50
2023-04-25T22:23:14.971Z,4.50
2023-04-25T22:25:43.160Z,4.40
2023-04-25T22:28:12.688Z,4.40
2023-04-25T22:30:41.033Z,4.40
2023-04-25T22:33:09.388Z,4.30
2023-04-25T22:35:37.676Z,4.30
2023-04-25T22:38:07.274Z,4.30
2023-04-25T22:40:35.493Z,4.20
2023-04-25T22:43:03.735Z,4.20
2023-04-25T22:45:32.601Z,4.20
2023-04-25T22:48:00.998Z,4.10
2023-04-25T22:50:29.297Z,4.00
2023-04-25T22:52:57.604Z,4.10
2023-04-25T22:55:27.862Z,4.10
2023-04-25T22:57:56.372Z,4.00
2023-04-25T23:00:26.276Z,4.00
2023-04-25T23:02:54.904Z,4.00
2023-04-25T23:05:24.598Z,4.00
2023-04-25T23:07:53.380Z,4.00
2023-04-25T23:10:21.731Z,3.90
2023-04-25T23:12:51.426Z,3.90
2023-04-25T23:15:20.744Z,3.90
2023-04-25T23:17:49.093Z,3.90
2023-04-25T23:20:17.707Z,3.90
2023-04-25T23:22:45.893Z,3.80
2023-04-25T23:25:15.062Z,3.70
2023-04-25T23:27:44.913Z,3.70
2023-04-25T23:30:15.775Z,3.70
2023-04-25T23:32:44.047Z,3.70
2023-04-25T23:35:13.303Z,3.70
2023-04-25T23:37:41.810Z,3.50
2023-04-25T23:40:12.153Z,3.40
2023-04-25T23:42:41.965Z,3.40
2023-04-25T23:45:11.367Z,3.30
2023-04-25T23:47:41.042Z,3.30
2023-04-25T23:50:10.679Z,3.20
2023-04-25T23:52:38.957Z,3.20
2023-04-25T23:55:09.737Z,3.20
2023-04-25T23:57:38.074Z,3.20
